sensor_id;sensor_type;location;lat;lon;timestamp;P1;durP1;ratioP1;P2;durP2;ratioP2
62673;SDS011;62269;47.594;17.638;2023-04-30T00:00:33;17.33;;;15.35;;
62673;SDS011;62269;47.594;17.638;2023-04-30T00:01:31;18.15;;;16.23;;
62673;SDS011;62269;47.594;17.638;2023-04-30T00:02:28;18.12;;;14.98;;
62673;SDS011;62269;47.594;17.638;2023-04-30T00:03:25;16.52;;;14.70;;
62673;SDS011;62269;47.594;17.638;2023-04-30T00:04:25;15.63;;;13.98;;
62673;SDS011;62269;47.594;17.638;2023-04-30T00:05:22;18.30;;;16.00;;
62673;SDS011;62269;47.594;17.638;2023-04-30T00:06:19;17.62;;;15.73;;
62673;SDS011;62269;47.594;17.638;2023-04-30T00:07:16;17.73;;;15.18;;
62673;SDS011;62269;47.594;17.638;2023-04-30T00:08:13;16.90;;;15.20;;
62673;SDS011;62269;47.594;17.638;2023-04-30T00:09:10;16.73;;;15.02;;
62673;SDS011;62269;47.594;17.638;2023-04-30T00:10:08;16.98;;;15.18;;
62673;SDS011;62269;47.594;17.638;2023-04-30T00:11:06;17.45;;;15.65;;
62673;SDS011;62269;47.594;17.638;2023-04-30T00:12:03;17.50;;;15.70;;
62673;SDS011;62269;47.594;17.638;2023-04-30T00:13:00;18.20;;;16.30;;
62673;SDS011;62269;47.594;17.638;2023-04-30T00:13:57;19.10;;;16.23;;
62673;SDS011;62269;47.594;17.638;2023-04-30T00:14:54;17.00;;;15.30;;
62673;SDS011;62269;47.594;17.638;2023-04-30T00:15:52;17.15;;;15.15;;
62673;SDS011;62269;47.594;17.638;2023-04-30T00:16:49;17.70;;;15.68;;
62673;SDS011;62269;47.594;17.638;2023-04-30T00:17:46;17.25;;;15.35;;
62673;SDS011;62269;47.594;17.638;2023-04-30T00:18:43;18.12;;;16.20;;
62673;SDS011;62269;47.594;17.638;2023-04-30T00:19:40;19.17;;;17.23;;
62673;SDS011;62269;47.594;17.638;2023-04-30T00:20:37;18.87;;;16.65;;
62673;SDS011;62269;47.594;17.638;2023-04-30T00:21:34;18.45;;;16.42;;
62673;SDS011;62269;47.594;17.638;2023-04-30T00:22:32;18.23;;;16.42;;
62673;SDS011;62269;47.594;17.638;2023-04-30T00:23:29;19.98;;;17.30;;
62673;SDS011;62269;47.594;17.638;2023-04-30T00:24:26;17.77;;;15.88;;
62673;SDS011;62269;47.594;17.638;2023-04-30T00:25:24;18.83;;;16.92;;
62673;SDS011;62269;47.594;17.638;2023-04-30T00:26:21;18.20;;;16.15;;
62673;SDS011;62269;47.594;17.638;2023-04-30T00:27:17;18.20;;;16.37;;
62673;SDS011;62269;47.594;17.638;2023-04-30T00:28:14;17.85;;;16.10;;
62673;SDS011;62269;47.594;17.638;2023-04-30T00:29:12;17.60;;;15.80;;
62673;SDS011;62269;47.594;17.638;2023-04-30T00:30:09;19.05;;;16.10;;
62673;SDS011;62269;47.594;17.638;2023-04-30T00:31:06;17.33;;;15.50;;
62673;SDS011;62269;47.594;17.638;2023-04-30T00:32:04;17.10;;;15.23;;
62673;SDS011;62269;47.594;17.638;2023-04-30T00:33:01;17.58;;;15.68;;
62673;SDS011;62269;47.594;17.638;2023-04-30T00:33:58;18.15;;;16.27;;
62673;SDS011;62269;47.594;17.638;2023-04-30T00:34:55;17.65;;;15.70;;
62673;SDS011;62269;47.594;17.638;2023-04-30T00:35:53;18.17;;;15.90;;
62673;SDS011;62269;47.594;17.638;2023-04-30T00:36:50;16.73;;;15.00;;
62673;SDS011;62269;47.594;17.638;2023-04-30T00:37:47;17.90;;;16.20;;
62673;SDS011;62269;47.594;17.638;2023-04-30T00:38:44;19.80;;;16.77;;
62673;SDS011;62269;47.594;17.638;2023-04-30T00:39:41;19.05;;;16.95;;
62673;SDS011;62269;47.594;17.638;2023-04-30T00:40:38;18.08;;;16.17;;
62673;SDS011;62269;47.594;17.638;2023-04-30T00:41:37;19.87;;;17.23;;
62673;SDS011;62269;47.594;17.638;2023-04-30T00:42:34;20.40;;;18.27;;
62673;SDS011;62269;47.594;17.638;2023-04-30T00:43:31;19.95;;;17.80;;
62673;SDS011;62269;47.594;17.638;2023-04-30T00:44:30;19.58;;;17.52;;
62673;SDS011;62269;47.594;17.638;2023-04-30T00:45:26;18.83;;;16.55;;
62673;SDS011;62269;47.594;17.638;2023-04-30T00:46:23;19.87;;;17.23;;
62673;SDS011;62269;47.594;17.638;2023-04-30T00:47:21;20.40;;;17.80;;
62673;SDS011;62269;47.594;17.638;2023-04-30T00:48:18;24.02;;;19.45;;
62673;SDS011;62269;47.594;17.638;2023-04-30T00:49:15;20.98;;;18.87;;
62673;SDS011;62269;47.594;17.638;2023-04-30T00:50:12;21.08;;;18.55;;
62673;SDS011;62269;47.594;17.638;2023-04-30T00:51:11;20.35;;;18.00;;
62673;SDS011;62269;47.594;17.638;2023-04-30T00:52:08;21.37;;;19.00;;
62673;SDS011;62269;47.594;17.638;2023-04-30T00:53:06;20.15;;;18.05;;
62673;SDS011;62269;47.594;17.638;2023-04-30T00:54:03;20.42;;;17.98;;
62673;SDS011;62269;47.594;17.638;2023-04-30T00:55:00;21.23;;;18.90;;
62673;SDS011;62269;47.594;17.638;2023-04-30T00:55:57;21.23;;;18.50;;
62673;SDS011;62269;47.594;17.638;2023-04-30T00:56:54;19.70;;;17.67;;
62673;SDS011;62269;47.594;17.638;2023-04-30T00:57:52;19.92;;;17.87;;
62673;SDS011;62269;47.594;17.638;2023-04-30T00:58:49;22.65;;;19.15;;
62673;SDS011;62269;47.594;17.638;2023-04-30T00:59:50;22.83;;;19.87;;
62673;SDS011;62269;47.594;17.638;2023-04-30T01:00:53;31.35;;;27.20;;
62673;SDS011;62269;47.594;17.638;2023-04-30T01:01:50;26.23;;;23.42;;
62673;SDS011;62269;47.594;17.638;2023-04-30T01:02:48;22.02;;;19.30;;
62673;SDS011;62269;47.594;17.638;2023-04-30T01:03:45;20.65;;;18.45;;
62673;SDS011;62269;47.594;17.638;2023-04-30T01:04:42;21.65;;;19.35;;
62673;SDS011;62269;47.594;17.638;2023-04-30T01:05:39;23.67;;;20.05;;
62673;SDS011;62269;47.594;17.638;2023-04-30T01:06:36;22.27;;;19.48;;
62673;SDS011;62269;47.594;17.638;2023-04-30T01:07:34;33.25;;;26.73;;
62673;SDS011;62269;47.594;17.638;2023-04-30T01:08:33;26.15;;;23.35;;
62673;SDS011;62269;47.594;17.638;2023-04-30T01:09:31;25.40;;;22.70;;
62673;SDS011;62269;47.594;17.638;2023-04-30T01:10:29;34.50;;;29.12;;
62673;SDS011;62269;47.594;17.638;2023-04-30T01:15:30;33.88;;;26.85;;
62673;SDS011;62269;47.594;17.638;2023-04-30T01:17:12;40.70;;;32.58;;
62673;SDS011;62269;47.594;17.638;2023-04-30T01:19:43;38.33;;;32.03;;
62673;SDS011;62269;47.594;17.638;2023-04-30T01:21:40;41.60;;;33.35;;
62673;SDS011;62269;47.594;17.638;2023-04-30T01:28:17;47.95;;;37.70;;
62673;SDS011;62269;47.594;17.638;2023-04-30T01:29:18;50.53;;;38.83;;
62673;SDS011;62269;47.594;17.638;2023-04-30T01:30:15;52.58;;;39.05;;
62673;SDS011;62269;47.594;17.638;2023-04-30T01:31:13;55.25;;;42.62;;
62673;SDS011;62269;47.594;17.638;2023-04-30T01:32:11;56.35;;;42.38;;
62673;SDS011;62269;47.594;17.638;2023-04-30T01:33:09;54.90;;;42.10;;
62673;SDS011;62269;47.594;17.638;2023-04-30T01:34:06;55.28;;;42.80;;
62673;SDS011;62269;47.594;17.638;2023-04-30T01:35:04;54.30;;;41.83;;
62673;SDS011;62269;47.594;17.638;2023-04-30T01:36:08;58.85;;;41.92;;
62673;SDS011;62269;47.594;17.638;2023-04-30T01:37:19;62.53;;;44.20;;
62673;SDS011;62269;47.594;17.638;2023-04-30T01:42:20;53.47;;;38.88;;
62673;SDS011;62269;47.594;17.638;2023-04-30T01:43:23;52.35;;;38.85;;
62673;SDS011;62269;47.594;17.638;2023-04-30T01:44:41;51.67;;;37.92;;
62673;SDS011;62269;47.594;17.638;2023-04-30T01:46:11;52.67;;;37.40;;
62673;SDS011;62269;47.594;17.638;2023-04-30T01:51:01;44.15;;;33.83;;
62673;SDS011;62269;47.594;17.638;2023-04-30T01:52:10;48.08;;;33.78;;
62673;SDS011;62269;47.594;17.638;2023-04-30T01:53:17;46.17;;;34.67;;
62673;SDS011;62269;47.594;17.638;2023-04-30T01:56:44;39.72;;;30.25;;
62673;SDS011;62269;47.594;17.638;2023-04-30T01:57:55;36.40;;;30.62;;
62673;SDS011;62269;47.594;17.638;2023-04-30T01:58:54;39.80;;;31.37;;
62673;SDS011;62269;47.594;17.638;2023-04-30T01:59:51;39.90;;;31.67;;
62673;SDS011;62269;47.594;17.638;2023-04-30T02:00:48;38.03;;;29.70;;
62673;SDS011;62269;47.594;17.638;2023-04-30T02:01:45;37.17;;;31.00;;
62673;SDS011;62269;47.594;17.638;2023-04-30T02:02:42;37.42;;;30.50;;
62673;SDS011;62269;47.594;17.638;2023-04-30T02:03:40;35.00;;;29.58;;
62673;SDS011;62269;47.594;17.638;2023-04-30T02:04:37;34.83;;;29.77;;
62673;SDS011;62269;47.594;17.638;2023-04-30T02:05:34;37.00;;;29.50;;
62673;SDS011;62269;47.594;17.638;2023-04-30T02:06:31;35.10;;;29.08;;
62673;SDS011;62269;47.594;17.638;2023-04-30T02:08:39;33.88;;;27.50;;
62673;SDS011;62269;47.594;17.638;2023-04-30T02:09:36;33.72;;;28.67;;
62673;SDS011;62269;47.594;17.638;2023-04-30T02:10:33;30.90;;;26.17;;
62673;SDS011;62269;47.594;17.638;2023-04-30T02:11:30;32.90;;;26.85;;
62673;SDS011;62269;47.594;17.638;2023-04-30T02:12:27;31.27;;;25.67;;
62673;SDS011;62269;47.594;17.638;2023-04-30T02:13:25;29.83;;;25.88;;
62673;SDS011;62269;47.594;17.638;2023-04-30T02:14:22;28.35;;;24.70;;
62673;SDS011;62269;47.594;17.638;2023-04-30T02:15:19;26.87;;;24.00;;
62673;SDS011;62269;47.594;17.638;2023-04-30T02:16:16;29.12;;;24.95;;
62673;SDS011;62269;47.594;17.638;2023-04-30T02:17:13;27.27;;;23.15;;
62673;SDS011;62269;47.594;17.638;2023-04-30T02:18:10;26.02;;;22.80;;
62673;SDS011;62269;47.594;17.638;2023-04-30T02:19:07;25.02;;;22.40;;
62673;SDS011;62269;47.594;17.638;2023-04-30T02:20:05;26.17;;;23.15;;
62673;SDS011;62269;47.594;17.638;2023-04-30T02:21:02;27.87;;;22.80;;
62673;SDS011;62269;47.594;17.638;2023-04-30T02:22:00;26.08;;;22.25;;
62673;SDS011;62269;47.594;17.638;2023-04-30T02:22:58;25.73;;;21.85;;
62673;SDS011;62269;47.594;17.638;2023-04-30T02:23:56;23.70;;;21.17;;
62673;SDS011;62269;47.594;17.638;2023-04-30T02:24:53;23.10;;;20.27;;
62673;SDS011;62269;47.594;17.638;2023-04-30T02:25:51;25.55;;;20.95;;
62673;SDS011;62269;47.594;17.638;2023-04-30T02:26:48;24.67;;;20.42;;
62673;SDS011;62269;47.594;17.638;2023-04-30T02:27:45;22.25;;;19.85;;
62673;SDS011;62269;47.594;17.638;2023-04-30T02:28:42;23.20;;;19.62;;
62673;SDS011;62269;47.594;17.638;2023-04-30T02:29:39;22.70;;;19.52;;
62673;SDS011;62269;47.594;17.638;2023-04-30T02:30:36;22.87;;;20.02;;
62673;SDS011;62269;47.594;17.638;2023-04-30T02:31:33;21.60;;;19.30;;
62673;SDS011;62269;47.594;17.638;2023-04-30T02:32:30;22.60;;;19.52;;
62673;SDS011;62269;47.594;17.638;2023-04-30T02:33:27;20.77;;;18.58;;
62673;SDS011;62269;47.594;17.638;2023-04-30T02:34:24;21.73;;;19.00;;
62673;SDS011;62269;47.594;17.638;2023-04-30T02:35:21;21.42;;;18.70;;
62673;SDS011;62269;47.594;17.638;2023-04-30T02:36:18;20.42;;;18.33;;
62673;SDS011;62269;47.594;17.638;2023-04-30T02:37:15;19.92;;;17.90;;
62673;SDS011;62269;47.594;17.638;2023-04-30T02:38:12;21.35;;;17.98;;
62673;SDS011;62269;47.594;17.638;2023-04-30T02:39:09;20.08;;;17.98;;
62673;SDS011;62269;47.594;17.638;2023-04-30T02:40:06;19.73;;;17.62;;
62673;SDS011;62269;47.594;17.638;2023-04-30T02:41:04;18.52;;;16.40;;
62673;SDS011;62269;47.594;17.638;2023-04-30T02:42:01;19.50;;;17.40;;
62673;SDS011;62269;47.594;17.638;2023-04-30T02:42:58;18.58;;;16.73;;
62673;SDS011;62269;47.594;17.638;2023-04-30T02:43:57;18.98;;;17.08;;
62673;SDS011;62269;47.594;17.638;2023-04-30T02:44:54;19.70;;;17.60;;
62673;SDS011;62269;47.594;17.638;2023-04-30T02:45:51;19.75;;;17.17;;
62673;SDS011;62269;47.594;17.638;2023-04-30T02:46:48;17.58;;;15.75;;
62673;SDS011;62269;47.594;17.638;2023-04-30T02:47:45;17.62;;;15.73;;
62673;SDS011;62269;47.594;17.638;2023-04-30T02:48:42;18.02;;;16.23;;
62673;SDS011;62269;47.594;17.638;2023-04-30T02:49:39;19.27;;;17.23;;
62673;SDS011;62269;47.594;17.638;2023-04-30T02:50:37;17.33;;;15.52;;
62673;SDS011;62269;47.594;17.638;2023-04-30T02:51:34;16.85;;;15.10;;
62673;SDS011;62269;47.594;17.638;2023-04-30T02:52:31;16.52;;;14.85;;
62673;SDS011;62269;47.594;17.638;2023-04-30T02:53:28;17.60;;;14.45;;
62673;SDS011;62269;47.594;17.638;2023-04-30T02:54:25;16.80;;;14.93;;
62673;SDS011;62269;47.594;17.638;2023-04-30T02:55:22;16.42;;;14.73;;
62673;SDS011;62269;47.594;17.638;2023-04-30T02:56:20;17.62;;;14.10;;
62673;SDS011;62269;47.594;17.638;2023-04-30T02:57:17;16.83;;;15.13;;
62673;SDS011;62269;47.594;17.638;2023-04-30T02:58:14;16.95;;;15.20;;
62673;SDS011;62269;47.594;17.638;2023-04-30T02:59:11;16.40;;;14.80;;
62673;SDS011;62269;47.594;17.638;2023-04-30T03:00:08;15.98;;;14.38;;
62673;SDS011;62269;47.594;17.638;2023-04-30T03:01:05;16.70;;;15.00;;
62673;SDS011;62269;47.594;17.638;2023-04-30T03:02:02;17.12;;;15.43;;
62673;SDS011;62269;47.594;17.638;2023-04-30T03:02:59;16.73;;;14.98;;
62673;SDS011;62269;47.594;17.638;2023-04-30T03:03:57;15.73;;;14.02;;
62673;SDS011;62269;47.594;17.638;2023-04-30T03:04:54;15.98;;;14.38;;
62673;SDS011;62269;47.594;17.638;2023-04-30T03:05:52;15.55;;;14.05;;
62673;SDS011;62269;47.594;17.638;2023-04-30T03:06:52;15.13;;;13.62;;
62673;SDS011;62269;47.594;17.638;2023-04-30T03:07:49;15.05;;;13.52;;
62673;SDS011;62269;47.594;17.638;2023-04-30T03:08:46;15.15;;;13.60;;
62673;SDS011;62269;47.594;17.638;2023-04-30T03:09:44;14.73;;;13.27;;
62673;SDS011;62269;47.594;17.638;2023-04-30T03:10:42;15.63;;;14.13;;
62673;SDS011;62269;47.594;17.638;2023-04-30T03:11:38;17.23;;;13.73;;
62673;SDS011;62269;47.594;17.638;2023-04-30T03:12:35;14.80;;;13.25;;
62673;SDS011;62269;47.594;17.638;2023-04-30T03:13:32;14.95;;;13.32;;
62673;SDS011;62269;47.594;17.638;2023-04-30T03:14:29;14.52;;;13.02;;
62673;SDS011;62269;47.594;17.638;2023-04-30T03:15:26;15.75;;;14.15;;
62673;SDS011;62269;47.594;17.638;2023-04-30T03:16:23;14.38;;;12.85;;
62673;SDS011;62269;47.594;17.638;2023-04-30T03:17:20;14.38;;;12.98;;
62673;SDS011;62269;47.594;17.638;2023-04-30T03:18:17;14.65;;;13.25;;
62673;SDS011;62269;47.594;17.638;2023-04-30T03:19:14;14.45;;;12.98;;
62673;SDS011;62269;47.594;17.638;2023-04-30T03:20:12;15.10;;;13.60;;
62673;SDS011;62269;47.594;17.638;2023-04-30T03:21:09;15.30;;;13.70;;
62673;SDS011;62269;47.594;17.638;2023-04-30T03:22:06;15.23;;;13.73;;
62673;SDS011;62269;47.594;17.638;2023-04-30T03:23:03;14.82;;;13.43;;
62673;SDS011;62269;47.594;17.638;2023-04-30T03:24:00;15.20;;;13.57;;
62673;SDS011;62269;47.594;17.638;2023-04-30T03:24:57;14.05;;;12.65;;
62673;SDS011;62269;47.594;17.638;2023-04-30T03:25:54;14.50;;;13.00;;
62673;SDS011;62269;47.594;17.638;2023-04-30T03:26:51;15.75;;;13.55;;
62673;SDS011;62269;47.594;17.638;2023-04-30T03:27:48;15.70;;;13.57;;
62673;SDS011;62269;47.594;17.638;2023-04-30T03:28:45;14.70;;;12.85;;
62673;SDS011;62269;47.594;17.638;2023-04-30T03:29:42;14.60;;;13.20;;
62673;SDS011;62269;47.594;17.638;2023-04-30T03:30:39;13.77;;;12.37;;
62673;SDS011;62269;47.594;17.638;2023-04-30T03:31:37;14.23;;;12.82;;
62673;SDS011;62269;47.594;17.638;2023-04-30T03:32:34;14.38;;;12.93;;
62673;SDS011;62269;47.594;17.638;2023-04-30T03:33:31;14.43;;;12.93;;
62673;SDS011;62269;47.594;17.638;2023-04-30T03:34:28;13.80;;;12.50;;
62673;SDS011;62269;47.594;17.638;2023-04-30T03:35:27;14.23;;;12.73;;
62673;SDS011;62269;47.594;17.638;2023-04-30T03:36:24;13.62;;;12.32;;
62673;SDS011;62269;47.594;17.638;2023-04-30T03:37:22;13.52;;;12.23;;
62673;SDS011;62269;47.594;17.638;2023-04-30T03:38:19;13.80;;;12.37;;
62673;SDS011;62269;47.594;17.638;2023-04-30T03:39:16;14.32;;;12.93;;
62673;SDS011;62269;47.594;17.638;2023-04-30T03:40:13;14.48;;;13.02;;
62673;SDS011;62269;47.594;17.638;2023-04-30T03:41:10;14.48;;;13.07;;
62673;SDS011;62269;47.594;17.638;2023-04-30T03:42:07;13.90;;;12.50;;
62673;SDS011;62269;47.594;17.638;2023-04-30T03:43:04;13.62;;;12.15;;
62673;SDS011;62269;47.594;17.638;2023-04-30T03:44:01;12.93;;;11.60;;
62673;SDS011;62269;47.594;17.638;2023-04-30T03:44:58;13.43;;;11.98;;
62673;SDS011;62269;47.594;17.638;2023-04-30T03:45:55;14.52;;;12.93;;
62673;SDS011;62269;47.594;17.638;2023-04-30T03:46:52;13.73;;;12.35;;
62673;SDS011;62269;47.594;17.638;2023-04-30T03:47:49;13.43;;;12.13;;
62673;SDS011;62269;47.594;17.638;2023-04-30T03:48:48;13.27;;;11.95;;
62673;SDS011;62269;47.594;17.638;2023-04-30T03:49:44;14.25;;;12.80;;
62673;SDS011;62269;47.594;17.638;2023-04-30T03:50:43;14.98;;;13.48;;
62673;SDS011;62269;47.594;17.638;2023-04-30T03:51:40;13.35;;;11.95;;
62673;SDS011;62269;47.594;17.638;2023-04-30T03:52:38;13.75;;;12.35;;
62673;SDS011;62269;47.594;17.638;2023-04-30T03:53:39;12.77;;;11.48;;
62673;SDS011;62269;47.594;17.638;2023-04-30T03:54:36;13.68;;;12.05;;
62673;SDS011;62269;47.594;17.638;2023-04-30T03:55:33;13.77;;;12.37;;
62673;SDS011;62269;47.594;17.638;2023-04-30T03:56:31;15.65;;;12.30;;
62673;SDS011;62269;47.594;17.638;2023-04-30T03:57:29;13.57;;;12.15;;
62673;SDS011;62269;47.594;17.638;2023-04-30T03:58:25;17.55;;;12.37;;
62673;SDS011;62269;47.594;17.638;2023-04-30T03:59:22;14.65;;;13.15;;
62673;SDS011;62269;47.594;17.638;2023-04-30T04:00:19;14.85;;;13.35;;
62673;SDS011;62269;47.594;17.638;2023-04-30T04:01:16;14.80;;;13.15;;
62673;SDS011;62269;47.594;17.638;2023-04-30T04:02:14;14.05;;;12.45;;
62673;SDS011;62269;47.594;17.638;2023-04-30T04:03:11;14.68;;;13.18;;
62673;SDS011;62269;47.594;17.638;2023-04-30T04:04:08;13.73;;;12.07;;
62673;SDS011;62269;47.594;17.638;2023-04-30T04:05:05;13.85;;;12.45;;
62673;SDS011;62269;47.594;17.638;2023-04-30T04:06:03;13.10;;;11.80;;
62673;SDS011;62269;47.594;17.638;2023-04-30T04:07:00;13.77;;;12.37;;
62673;SDS011;62269;47.594;17.638;2023-04-30T04:07:59;13.60;;;12.20;;
62673;SDS011;62269;47.594;17.638;2023-04-30T04:08:56;15.18;;;13.68;;
62673;SDS011;62269;47.594;17.638;2023-04-30T04:09:53;14.77;;;13.27;;
62673;SDS011;62269;47.594;17.638;2023-04-30T04:10:50;14.05;;;12.57;;
62673;SDS011;62269;47.594;17.638;2023-04-30T04:11:47;14.15;;;12.80;;
62673;SDS011;62269;47.594;17.638;2023-04-30T04:12:44;14.87;;;13.40;;
62673;SDS011;62269;47.594;17.638;2023-04-30T04:13:42;14.25;;;12.15;;
62673;SDS011;62269;47.594;17.638;2023-04-30T04:14:39;14.90;;;13.32;;
62673;SDS011;62269;47.594;17.638;2023-04-30T04:15:36;17.40;;;14.35;;
62673;SDS011;62269;47.594;17.638;2023-04-30T04:16:33;15.15;;;13.57;;
62673;SDS011;62269;47.594;17.638;2023-04-30T04:17:30;14.43;;;12.95;;
62673;SDS011;62269;47.594;17.638;2023-04-30T04:18:27;15.55;;;13.43;;
62673;SDS011;62269;47.594;17.638;2023-04-30T04:19:25;17.35;;;14.00;;
62673;SDS011;62269;47.594;17.638;2023-04-30T04:20:22;15.18;;;13.68;;
62673;SDS011;62269;47.594;17.638;2023-04-30T04:21:19;14.90;;;13.30;;
62673;SDS011;62269;47.594;17.638;2023-04-30T04:22:16;15.45;;;13.85;;
62673;SDS011;62269;47.594;17.638;2023-04-30T04:23:13;16.27;;;14.10;;
62673;SDS011;62269;47.594;17.638;2023-04-30T04:24:10;15.50;;;13.85;;
62673;SDS011;62269;47.594;17.638;2023-04-30T04:25:08;14.27;;;12.85;;
62673;SDS011;62269;47.594;17.638;2023-04-30T04:26:06;14.13;;;12.75;;
62673;SDS011;62269;47.594;17.638;2023-04-30T04:27:03;15.10;;;13.15;;
62673;SDS011;62269;47.594;17.638;2023-04-30T04:28:01;14.45;;;12.88;;
62673;SDS011;62269;47.594;17.638;2023-04-30T04:28:58;15.75;;;13.27;;
62673;SDS011;62269;47.594;17.638;2023-04-30T04:29:55;14.60;;;12.95;;
62673;SDS011;62269;47.594;17.638;2023-04-30T04:30:52;15.80;;;13.68;;
62673;SDS011;62269;47.594;17.638;2023-04-30T04:31:49;15.88;;;14.18;;
62673;SDS011;62269;47.594;17.638;2023-04-30T04:32:46;16.12;;;13.70;;
62673;SDS011;62269;47.594;17.638;2023-04-30T04:33:46;15.73;;;14.13;;
62673;SDS011;62269;47.594;17.638;2023-04-30T04:34:43;16.08;;;14.07;;
62673;SDS011;62269;47.594;17.638;2023-04-30T04:35:41;16.83;;;14.60;;
62673;SDS011;62269;47.594;17.638;2023-04-30T04:36:38;15.50;;;13.27;;
62673;SDS011;62269;47.594;17.638;2023-04-30T04:37:35;17.67;;;14.00;;
62673;SDS011;62269;47.594;17.638;2023-04-30T04:38:32;17.42;;;14.70;;
62673;SDS011;62269;47.594;17.638;2023-04-30T04:39:29;14.98;;;13.48;;
62673;SDS011;62269;47.594;17.638;2023-04-30T04:40:49;15.43;;;13.68;;
62673;SDS011;62269;47.594;17.638;2023-04-30T04:41:47;17.23;;;14.32;;
62673;SDS011;62269;47.594;17.638;2023-04-30T04:42:44;17.30;;;14.45;;
62673;SDS011;62269;47.594;17.638;2023-04-30T04:43:42;16.52;;;14.13;;
62673;SDS011;62269;47.594;17.638;2023-04-30T04:44:39;15.88;;;14.15;;
62673;SDS011;62269;47.594;17.638;2023-04-30T04:45:36;17.80;;;15.60;;
62673;SDS011;62269;47.594;17.638;2023-04-30T04:46:36;16.35;;;14.35;;
62673;SDS011;62269;47.594;17.638;2023-04-30T04:47:37;16.52;;;13.93;;
62673;SDS011;62269;47.594;17.638;2023-04-30T04:48:34;16.55;;;14.50;;
62673;SDS011;62269;47.594;17.638;2023-04-30T04:49:31;16.35;;;14.60;;
62673;SDS011;62269;47.594;17.638;2023-04-30T04:50:28;15.38;;;12.85;;
62673;SDS011;62269;47.594;17.638;2023-04-30T04:51:25;16.05;;;13.98;;
62673;SDS011;62269;47.594;17.638;2023-04-30T04:52:22;16.60;;;14.82;;
62673;SDS011;62269;47.594;17.638;2023-04-30T04:53:19;17.30;;;14.73;;
62673;SDS011;62269;47.594;17.638;2023-04-30T04:54:16;18.15;;;15.35;;
62673;SDS011;62269;47.594;17.638;2023-04-30T04:55:13;16.83;;;14.35;;
62673;SDS011;62269;47.594;17.638;2023-04-30T04:56:09;17.37;;;14.65;;
62673;SDS011;62269;47.594;17.638;2023-04-30T04:57:06;16.27;;;14.57;;
62673;SDS011;62269;47.594;17.638;2023-04-30T04:58:03;16.67;;;14.95;;
62673;SDS011;62269;47.594;17.638;2023-04-30T04:59:00;17.58;;;14.60;;
62673;SDS011;62269;47.594;17.638;2023-04-30T04:59:57;19.60;;;14.85;;
62673;SDS011;62269;47.594;17.638;2023-04-30T05:00:54;16.87;;;14.10;;
62673;SDS011;62269;47.594;17.638;2023-04-30T05:01:52;17.10;;;14.23;;
62673;SDS011;62269;47.594;17.638;2023-04-30T05:02:49;16.87;;;14.80;;
62673;SDS011;62269;47.594;17.638;2023-04-30T05:03:46;18.35;;;14.75;;
62673;SDS011;62269;47.594;17.638;2023-04-30T05:04:45;17.83;;;14.70;;
62673;SDS011;62269;47.594;17.638;2023-04-30T05:05:42;17.85;;;15.23;;
62673;SDS011;62269;47.594;17.638;2023-04-30T05:06:39;17.52;;;15.55;;
62673;SDS011;62269;47.594;17.638;2023-04-30T05:07:38;16.85;;;14.45;;
62673;SDS011;62269;47.594;17.638;2023-04-30T05:08:35;18.87;;;15.63;;
62673;SDS011;62269;47.594;17.638;2023-04-30T05:09:32;16.50;;;14.60;;
62673;SDS011;62269;47.594;17.638;2023-04-30T05:10:29;17.33;;;15.32;;
62673;SDS011;62269;47.594;17.638;2023-04-30T05:11:26;17.65;;;15.80;;
62673;SDS011;62269;47.594;17.638;2023-04-30T05:12:23;17.67;;;15.50;;
62673;SDS011;62269;47.594;17.638;2023-04-30T05:13:20;19.60;;;16.05;;
62673;SDS011;62269;47.594;17.638;2023-04-30T05:14:17;17.17;;;15.40;;
62673;SDS011;62269;47.594;17.638;2023-04-30T05:15:14;17.73;;;15.93;;
62673;SDS011;62269;47.594;17.638;2023-04-30T05:16:10;17.48;;;14.57;;
62673;SDS011;62269;47.594;17.638;2023-04-30T05:17:07;17.67;;;15.02;;
62673;SDS011;62269;47.594;17.638;2023-04-30T05:18:04;17.87;;;15.98;;
62673;SDS011;62269;47.594;17.638;2023-04-30T05:19:01;17.23;;;15.18;;
62673;SDS011;62269;47.594;17.638;2023-04-30T05:19:58;16.52;;;14.75;;
62673;SDS011;62269;47.594;17.638;2023-04-30T05:20:55;16.02;;;14.32;;
62673;SDS011;62269;47.594;17.638;2023-04-30T05:21:55;18.65;;;15.18;;
62673;SDS011;62269;47.594;17.638;2023-04-30T05:22:51;19.40;;;14.65;;
62673;SDS011;62269;47.594;17.638;2023-04-30T05:23:48;17.70;;;15.80;;
62673;SDS011;62269;47.594;17.638;2023-04-30T05:24:45;18.50;;;15.02;;
62673;SDS011;62269;47.594;17.638;2023-04-30T05:25:43;17.70;;;15.98;;
62673;SDS011;62269;47.594;17.638;2023-04-30T05:26:40;18.30;;;16.12;;
62673;SDS011;62269;47.594;17.638;2023-04-30T05:27:37;16.98;;;15.15;;
62673;SDS011;62269;47.594;17.638;2023-04-30T05:28:34;17.75;;;15.10;;
62673;SDS011;62269;47.594;17.638;2023-04-30T05:29:31;18.23;;;16.08;;
62673;SDS011;62269;47.594;17.638;2023-04-30T05:30:29;18.40;;;15.27;;
62673;SDS011;62269;47.594;17.638;2023-04-30T05:31:25;17.37;;;14.87;;
62673;SDS011;62269;47.594;17.638;2023-04-30T05:32:22;18.87;;;16.33;;
62673;SDS011;62269;47.594;17.638;2023-04-30T05:33:19;18.12;;;16.17;;
62673;SDS011;62269;47.594;17.638;2023-04-30T05:34:16;18.35;;;15.48;;
62673;SDS011;62269;47.594;17.638;2023-04-30T05:35:13;16.87;;;14.60;;
62673;SDS011;62269;47.594;17.638;2023-04-30T05:36:10;17.40;;;15.50;;
62673;SDS011;62269;47.594;17.638;2023-04-30T05:37:07;17.80;;;15.85;;
62673;SDS011;62269;47.594;17.638;2023-04-30T05:38:04;17.95;;;16.00;;
62673;SDS011;62269;47.594;17.638;2023-04-30T05:39:01;16.98;;;15.23;;
62673;SDS011;62269;47.594;17.638;2023-04-30T05:39:58;17.23;;;15.38;;
62673;SDS011;62269;47.594;17.638;2023-04-30T05:40:55;18.23;;;16.25;;
62673;SDS011;62269;47.594;17.638;2023-04-30T05:41:52;18.73;;;16.20;;
62673;SDS011;62269;47.594;17.638;2023-04-30T05:42:49;18.55;;;15.52;;
62673;SDS011;62269;47.594;17.638;2023-04-30T05:43:45;20.30;;;16.15;;
62673;SDS011;62269;47.594;17.638;2023-04-30T05:44:43;18.48;;;16.50;;
62673;SDS011;62269;47.594;17.638;2023-04-30T05:45:40;17.20;;;15.40;;
62673;SDS011;62269;47.594;17.638;2023-04-30T05:46:37;18.17;;;15.68;;
62673;SDS011;62269;47.594;17.638;2023-04-30T05:47:34;18.40;;;16.50;;
62673;SDS011;62269;47.594;17.638;2023-04-30T05:48:31;18.05;;;16.15;;
62673;SDS011;62269;47.594;17.638;2023-04-30T05:49:28;18.50;;;16.55;;
62673;SDS011;62269;47.594;17.638;2023-04-30T05:50:25;18.37;;;15.90;;
62673;SDS011;62269;47.594;17.638;2023-04-30T05:51:21;16.95;;;14.98;;
62673;SDS011;62269;47.594;17.638;2023-04-30T05:52:18;17.92;;;16.12;;
62673;SDS011;62269;47.594;17.638;2023-04-30T05:53:15;16.67;;;14.95;;
62673;SDS011;62269;47.594;17.638;2023-04-30T05:54:12;17.17;;;14.93;;
62673;SDS011;62269;47.594;17.638;2023-04-30T05:55:09;16.95;;;15.15;;
62673;SDS011;62269;47.594;17.638;2023-04-30T05:56:06;16.00;;;14.35;;
62673;SDS011;62269;47.594;17.638;2023-04-30T05:57:04;17.52;;;15.73;;